sensor_id;sensor_type;location;lat;lon;timestamp;pressure;altitude;pressure_sealevel;temperature;humidity
60974;BME280;46846;51.528;5.076;2023-03-21T00:00:00;101164.91;;;7.52;82.97
60974;BME280;46846;51.528;5.076;2023-03-21T00:02:25;101158.78;;;7.50;82.75
60974;BME280;46846;51.528;5.076;2023-03-21T00:04:51;101147.28;;;7.51;82.68
60974;BME280;46846;51.528;5.076;2023-03-21T00:07:17;101146.38;;;7.53;82.81
60974;BME280;46846;51.528;5.076;2023-03-21T00:09:42;101145.56;;;7.48;82.93
60974;BME280;46846;51.528;5.076;2023-03-21T00:12:08;101140.31;;;7.47;83.22
60974;BME280;46846;51.528;5.076;2023-03-21T00:14:35;101147.34;;;7.48;83.14
60974;BME280;46846;51.528;5.076;2023-03-21T00:17:03;101140.25;;;7.50;83.06
60974;BME280;46846;51.528;5.076;2023-03-21T00:19:28;101127.81;;;7.53;83.05
60974;BME280;46846;51.528;5.076;2023-03-21T00:21:54;101125.19;;;7.53;82.73
60974;BME280;46846;51.528;5.076;2023-03-21T00:24:20;101133.19;;;7.50;82.60
60974;BME280;46846;51.528;5.076;2023-03-21T00:26:47;101125.25;;;7.50;82.80
60974;BME280;46846;51.528;5.076;2023-03-21T00:29:12;101122.63;;;7.49;83.08
60974;BME280;46846;51.528;5.076;2023-03-21T00:31:37;101115.59;;;7.46;83.00
60974;BME280;46846;51.528;5.076;2023-03-21T00:34:03;101119.09;;;7.48;82.97
60974;BME280;46846;51.528;5.076;2023-03-21T00:36:28;101114.66;;;7.49;83.09
60974;BME280;46846;51.528;5.076;2023-03-21T00:38:54;101109.47;;;7.44;82.87
60974;BME280;46846;51.528;5.076;2023-03-21T00:41:19;101112.94;;;7.46;83.07
60974;BME280;46846;51.528;5.076;2023-03-21T00:43:45;101103.19;;;7.50;82.82
60974;BME280;46846;51.528;5.076;2023-03-21T00:46:11;101098.78;;;7.50;83.02
60974;BME280;46846;51.528;5.076;2023-03-21T00:48:36;101098.78;;;7.50;83.00
60974;BME280;46846;51.528;5.076;2023-03-21T00:51:02;101096.97;;;7.52;82.66
60974;BME280;46846;51.528;5.076;2023-03-21T00:53:36;101090.84;;;7.47;82.99
60974;BME280;46846;51.528;5.076;2023-03-21T00:56:02;101084.63;;;7.51;82.97
60974;BME280;46846;51.528;5.076;2023-03-21T00:58:27;101083.72;;;7.52;82.92
60974;BME280;46846;51.528;5.076;2023-03-21T01:00:52;101085.53;;;7.49;82.86
60974;BME280;46846;51.528;5.076;2023-03-21T01:03:18;101080.16;;;7.55;82.99
60974;BME280;46846;51.528;5.076;2023-03-21T01:05:46;101078.44;;;7.51;82.77
60974;BME280;46846;51.528;5.076;2023-03-21T01:08:34;101075.78;;;7.51;82.79
60974;BME280;46846;51.528;5.076;2023-03-21T01:11:05;101072.22;;;7.53;82.96
60974;BME280;46846;51.528;5.076;2023-03-21T01:13:31;101072.13;;;7.60;82.57
60974;BME280;46846;51.528;5.076;2023-03-21T01:15:57;101073.03;;;7.59;82.33
60974;BME280;46846;51.528;5.076;2023-03-21T01:18:24;101063.38;;;7.55;82.22
60974;BME280;46846;51.528;5.076;2023-03-21T01:20:52;101065.06;;;7.59;82.27
60974;BME280;46846;51.528;5.076;2023-03-21T01:23:18;101057.16;;;7.57;82.40
60974;BME280;46846;51.528;5.076;2023-03-21T01:25:46;101062.25;;;7.66;82.67
60974;BME280;46846;51.528;5.076;2023-03-21T01:28:12;101050.84;;;7.64;82.62
60974;BME280;46846;51.528;5.076;2023-03-21T01:30:37;101052.75;;;7.58;82.40
60974;BME280;46846;51.528;5.076;2023-03-21T01:33:02;101055.44;;;7.55;82.44
60974;BME280;46846;51.528;5.076;2023-03-21T01:35:30;101055.47;;;7.53;82.63
60974;BME280;46846;51.528;5.076;2023-03-21T01:37:56;101041.34;;;7.52;82.73
60974;BME280;46846;51.528;5.076;2023-03-21T01:40:27;101040.34;;;7.58;82.59
60974;BME280;46846;51.528;5.076;2023-03-21T01:42:53;101040.44;;;7.53;82.43
60974;BME280;46846;51.528;5.076;2023-03-21T01:48:46;101038.69;;;7.52;82.75
60974;BME280;46846;51.528;5.076;2023-03-21T01:51:12;101033.47;;;7.49;82.32
60974;BME280;46846;51.528;5.076;2023-03-21T01:53:39;101039.63;;;7.50;83.09
60974;BME280;46846;51.528;5.076;2023-03-21T01:56:21;101033.41;;;7.52;82.58
60974;BME280;46846;51.528;5.076;2023-03-21T01:58:48;101035.06;;;7.58;82.49
60974;BME280;46846;51.528;5.076;2023-03-21T02:01:14;101029.75;;;7.58;82.59
60974;BME280;46846;51.528;5.076;2023-03-21T02:03:41;101026.19;;;7.61;82.47
60974;BME280;46846;51.528;5.076;2023-03-21T02:06:26;101024.38;;;7.63;82.18
60974;BME280;46846;51.528;5.076;2023-03-21T02:08:58;101020.06;;;7.59;82.22
60974;BME280;46846;51.528;5.076;2023-03-21T02:11:26;101023.53;;;7.61;82.54
60974;BME280;46846;51.528;5.076;2023-03-21T02:13:54;101019.16;;;7.60;82.08
60974;BME280;46846;51.528;5.076;2023-03-21T02:24:32;101010.28;;;7.61;82.05
60974;BME280;46846;51.528;5.076;2023-03-21T02:33:09;101002.34;;;7.62;82.10
60974;BME280;46846;51.528;5.076;2023-03-21T02:43:46;100991.75;;;7.62;82.04
60974;BME280;46846;51.528;5.076;2023-03-21T02:46:56;100984.66;;;7.63;82.09
60974;BME280;46846;51.528;5.076;2023-03-21T02:49:29;100984.66;;;7.63;82.14
60974;BME280;46846;51.528;5.076;2023-03-21T02:51:58;100981.97;;;7.66;82.29
60974;BME280;46846;51.528;5.076;2023-03-21T02:54:25;100978.38;;;7.69;81.72
60974;BME280;46846;51.528;5.076;2023-03-21T02:56:55;100978.38;;;7.69;81.66
60974;BME280;46846;51.528;5.076;2023-03-21T02:59:23;100970.44;;;7.67;82.23
60974;BME280;46846;51.528;5.076;2023-03-21T03:01:51;100968.63;;;7.69;81.88
60974;BME280;46846;51.528;5.076;2023-03-21T03:04:19;100965.09;;;7.70;81.81
60974;BME280;46846;51.528;5.076;2023-03-21T03:07:12;100970.38;;;7.70;81.83
60974;BME280;46846;51.528;5.076;2023-03-21T03:09:52;100959.84;;;7.67;81.80
60974;BME280;46846;51.528;5.076;2023-03-21T03:12:40;100966.91;;;7.68;81.58
60974;BME280;46846;51.528;5.076;2023-03-21T03:18:15;100963.47;;;7.63;81.77
60974;BME280;46846;51.528;5.076;2023-03-21T03:20:57;100959.97;;;7.61;81.94
60974;BME280;46846;51.528;5.076;2023-03-21T03:23:32;100956.47;;;7.60;81.45
60974;BME280;46846;51.528;5.076;2023-03-21T03:26:22;100958.22;;;7.61;81.64
60974;BME280;46846;51.528;5.076;2023-03-21T03:28:54;100955.59;;;7.60;81.73
60974;BME280;46846;51.528;5.076;2023-03-21T03:31:28;100953.84;;;7.59;82.07
60974;BME280;46846;51.528;5.076;2023-03-21T03:33:59;100960.00;;;7.59;81.98
60974;BME280;46846;51.528;5.076;2023-03-21T03:36:33;100953.84;;;7.59;81.95
60974;BME280;46846;51.528;5.076;2023-03-21T03:39:05;100954.75;;;7.58;82.12
60974;BME280;46846;51.528;5.076;2023-03-21T03:41:37;100954.69;;;7.59;82.03
60974;BME280;46846;51.528;5.076;2023-03-21T03:44:05;100943.25;;;7.59;81.84
60974;BME280;46846;51.528;5.076;2023-03-21T03:46:35;100947.66;;;7.60;81.69
60974;BME280;46846;51.528;5.076;2023-03-21T03:49:28;100942.44;;;7.57;81.87
60974;BME280;46846;51.528;5.076;2023-03-21T03:52:11;100937.13;;;7.57;81.69
60974;BME280;46846;51.528;5.076;2023-03-21T03:54:45;100929.13;;;7.58;82.13
60974;BME280;46846;51.528;5.076;2023-03-21T03:57:12;100935.28;;;7.60;81.45
60974;BME280;46846;51.528;5.076;2023-03-21T03:59:41;100931.84;;;7.57;81.96
60974;BME280;46846;51.528;5.076;2023-03-21T04:02:07;100929.22;;;7.53;82.11
60974;BME280;46846;51.528;5.076;2023-03-21T04:04:33;100924.88;;;7.51;82.16
60974;BME280;46846;51.528;5.076;2023-03-21T04:06:59;100921.38;;;7.49;81.89
60974;BME280;46846;51.528;5.076;2023-03-21T04:09:25;100928.38;;;7.53;81.64
60974;BME280;46846;51.528;5.076;2023-03-21T04:11:54;100929.22;;;7.53;82.03
60974;BME280;46846;51.528;5.076;2023-03-21T04:14:20;100921.28;;;7.53;81.63
60974;BME280;46846;51.528;5.076;2023-03-21T04:16:45;100916.97;;;7.49;81.85
60974;BME280;46846;51.528;5.076;2023-03-21T04:19:11;100919.63;;;7.49;82.10
60974;BME280;46846;51.528;5.076;2023-03-21T04:21:37;100911.75;;;7.45;81.80
60974;BME280;46846;51.528;5.076;2023-03-21T04:24:03;100910.00;;;7.44;81.92
60974;BME280;46846;51.528;5.076;2023-03-21T04:26:28;100911.78;;;7.43;81.61
60974;BME280;46846;51.528;5.076;2023-03-21T04:28:57;100902.06;;;7.44;81.76
60974;BME280;46846;51.528;5.076;2023-03-21T04:31:28;100914.34;;;7.48;81.92
60974;BME280;46846;51.528;5.076;2023-03-21T04:34:00;100897.53;;;7.50;82.11
60974;BME280;46846;51.528;5.076;2023-03-21T04:36:26;100894.88;;;7.50;81.92
60974;BME280;46846;51.528;5.076;2023-03-21T04:38:57;100891.31;;;7.51;81.79
60974;BME280;46846;51.528;5.076;2023-03-21T04:41:26;100893.03;;;7.54;81.91
60974;BME280;46846;51.528;5.076;2023-03-21T04:43:52;100892.28;;;7.47;81.87
60974;BME280;46846;51.528;5.076;2023-03-21T04:46:17;100890.53;;;7.46;81.87
60974;BME280;46846;51.528;5.076;2023-03-21T04:48:43;100894.00;;;7.48;81.91
60974;BME280;46846;51.528;5.076;2023-03-21T04:51:08;100888.78;;;7.47;81.81
60974;BME280;46846;51.528;5.076;2023-03-21T04:53:33;100893.09;;;7.51;81.64
60974;BME280;46846;51.528;5.076;2023-03-21T04:55:59;100884.34;;;7.47;81.42
60974;BME280;46846;51.528;5.076;2023-03-21T04:58:25;100886.06;;;7.48;81.66
60974;BME280;46846;51.528;5.076;2023-03-21T05:00:50;100879.09;;;7.46;81.88
60974;BME280;46846;51.528;5.076;2023-03-21T05:03:17;100876.38;;;7.47;81.83
60974;BME280;46846;51.528;5.076;2023-03-21T05:05:46;100875.47;;;7.48;81.58
60974;BME280;46846;51.528;5.076;2023-03-21T05:08:12;100876.47;;;7.44;81.92
60974;BME280;46846;51.528;5.076;2023-03-21T05:10:38;100874.66;;;7.46;81.76
60974;BME280;46846;51.528;5.076;2023-03-21T05:13:03;100879.03;;;7.47;82.19
60974;BME280;46846;51.528;5.076;2023-03-21T05:15:29;100871.97;;;7.48;81.88
60974;BME280;46846;51.528;5.076;2023-03-21T05:17:55;100870.34;;;7.42;81.45
60974;BME280;46846;51.528;5.076;2023-03-21T05:20:23;100872.13;;;7.40;81.68
60974;BME280;46846;51.528;5.076;2023-03-21T05:22:48;100876.47;;;7.44;81.90
60974;BME280;46846;51.528;5.076;2023-03-21T05:25:16;100872.91;;;7.45;82.06
60974;BME280;46846;51.528;5.076;2023-03-21T05:27:42;100870.28;;;7.45;81.67
60974;BME280;46846;51.528;5.076;2023-03-21T05:30:16;100869.47;;;7.40;82.11
60974;BME280;46846;51.528;5.076;2023-03-21T05:32:45;100867.78;;;7.37;81.70
60974;BME280;46846;51.528;5.076;2023-03-21T05:35:11;100880.84;;;7.47;82.00
60974;BME280;46846;51.528;5.076;2023-03-21T05:37:36;100872.91;;;7.45;81.99
60974;BME280;46846;51.528;5.076;2023-03-21T05:40:03;100872.84;;;7.48;81.89
60974;BME280;46846;51.528;5.076;2023-03-21T05:42:30;100874.56;;;7.51;82.07
60974;BME280;46846;51.528;5.076;2023-03-21T05:44:55;100876.38;;;7.49;81.85
60974;BME280;46846;51.528;5.076;2023-03-21T05:47:21;100872.09;;;7.43;81.49
60974;BME280;46846;51.528;5.076;2023-03-21T05:49:46;100878.22;;;7.45;81.75
60974;BME280;46846;51.528;5.076;2023-03-21T05:52:11;100878.13;;;7.48;81.33
60974;BME280;46846;51.528;5.076;2023-03-21T05:54:37;100870.38;;;7.39;81.93
60974;BME280;46846;51.528;5.076;2023-03-21T05:57:03;100870.44;;;7.37;81.71
60974;BME280;46846;51.528;5.076;2023-03-21T05:59:28;100872.13;;;7.40;81.62
60974;BME280;46846;51.528;5.076;2023-03-21T06:01:53;100872.19;;;7.38;81.77
60974;BME280;46846;51.528;5.076;2023-03-21T06:04:19;100871.41;;;7.33;82.16
60974;BME280;46846;51.528;5.076;2023-03-21T06:06:47;100874.78;;;7.40;81.83
60974;BME280;46846;51.528;5.076;2023-03-21T06:09:12;100872.31;;;7.31;82.08
60974;BME280;46846;51.528;5.076;2023-03-21T06:11:39;100869.69;;;7.31;81.93
60974;BME280;46846;51.528;5.076;2023-03-21T06:14:07;100873.16;;;7.33;81.71
60974;BME280;46846;51.528;5.076;2023-03-21T06:16:32;100875.00;;;7.29;81.91
60974;BME280;46846;51.528;5.076;2023-03-21T06:18:57;100875.06;;;7.28;82.13
60974;BME280;46846;51.528;5.076;2023-03-21T06:21:23;100870.50;;;7.33;82.24
60974;BME280;46846;51.528;5.076;2023-03-21T06:23:48;100876.78;;;7.29;81.70
60974;BME280;46846;51.528;5.076;2023-03-21T06:26:17;100876.78;;;7.29;81.75
60974;BME280;46846;51.528;5.076;2023-03-21T06:28:48;100867.00;;;7.32;82.08
60974;BME280;46846;51.528;5.076;2023-03-21T06:31:13;100880.25;;;7.31;81.90
60974;BME280;46846;51.528;5.076;2023-03-21T06:33:39;100891.75;;;7.31;81.72
60974;BME280;46846;51.528;5.076;2023-03-21T06:36:05;100883.91;;;7.27;82.02
60974;BME280;46846;51.528;5.076;2023-03-21T06:38:30;100888.28;;;7.28;82.40
60974;BME280;46846;51.528;5.076;2023-03-21T06:40:56;100890.94;;;7.26;82.30
60974;BME280;46846;51.528;5.076;2023-03-21T06:43:21;100890.81;;;7.34;81.68
60974;BME280;46846;51.528;5.076;2023-03-21T06:45:47;100891.75;;;7.31;82.02
60974;BME280;46846;51.528;5.076;2023-03-21T06:48:12;100897.84;;;7.35;81.96
60974;BME280;46846;51.528;5.076;2023-03-21T06:50:38;100896.16;;;7.31;81.79
60974;BME280;46846;51.528;5.076;2023-03-21T06:53:03;100899.78;;;7.27;82.03
60974;BME280;46846;51.528;5.076;2023-03-21T06:55:28;100897.06;;;7.28;81.93
60974;BME280;46846;51.528;5.076;2023-03-21T06:57:55;100896.16;;;7.31;82.40
60974;BME280;46846;51.528;5.076;2023-03-21T07:00:21;100906.81;;;7.28;82.45
60974;BME280;46846;51.528;5.076;2023-03-21T07:02:47;100903.19;;;7.32;82.23
60974;BME280;46846;51.528;5.076;2023-03-21T07:05:13;100908.56;;;7.29;81.98
60974;BME280;46846;51.528;5.076;2023-03-21T07:07:39;100906.97;;;7.18;82.47
60974;BME280;46846;51.528;5.076;2023-03-21T07:10:05;100906.09;;;7.19;82.57
60974;BME280;46846;51.528;5.076;2023-03-21T07:12:31;100904.28;;;7.20;82.77
60974;BME280;46846;51.528;5.076;2023-03-21T07:15:00;100902.47;;;7.23;82.72
60974;BME280;46846;51.528;5.076;2023-03-21T07:17:26;100901.56;;;7.24;82.47
60974;BME280;46846;51.528;5.076;2023-03-21T07:19:52;100893.53;;;7.29;82.18
60974;BME280;46846;51.528;5.076;2023-03-21T07:22:17;100876.69;;;7.33;82.21
60974;BME280;46846;51.528;5.076;2023-03-21T07:24:43;100891.63;;;7.37;82.22
60974;BME280;46846;51.528;5.076;2023-03-21T07:27:08;100898.59;;;7.42;82.19
60974;BME280;46846;51.528;5.076;2023-03-21T07:29:33;100894.22;;;7.39;82.29
60974;BME280;46846;51.528;5.076;2023-03-21T07:31:59;100891.63;;;7.37;82.13
60974;BME280;46846;51.528;5.076;2023-03-21T07:34:25;100884.44;;;7.43;82.04
60974;BME280;46846;51.528;5.076;2023-03-21T07:36:55;100884.41;;;7.44;82.00
60974;BME280;46846;51.528;5.076;2023-03-21T07:39:21;100877.31;;;7.46;81.98
60974;BME280;46846;51.528;5.076;2023-03-21T07:41:47;100878.09;;;7.50;81.80
60974;BME280;46846;51.528;5.076;2023-03-21T07:44:13;100871.25;;;7.41;81.88
60974;BME280;46846;51.528;5.076;2023-03-21T07:46:38;100873.91;;;7.39;81.68
60974;BME280;46846;51.528;5.076;2023-03-21T07:49:03;100870.28;;;7.44;82.03
60974;BME280;46846;51.528;5.076;2023-03-21T07:51:30;100871.19;;;7.44;81.67
60974;BME280;46846;51.528;5.076;2023-03-21T07:53:56;100865.88;;;7.44;81.68
60974;BME280;46846;51.528;5.076;2023-03-21T07:56:22;100866.69;;;7.48;82.02
60974;BME280;46846;51.528;5.076;2023-03-21T07:58:48;100858.66;;;7.51;81.78
60974;BME280;46846;51.528;5.076;2023-03-21T08:01:13;100856.81;;;7.55;81.75
60974;BME280;46846;51.528;5.076;2023-03-21T08:03:38;100855.28;;;7.44;81.45
60974;BME280;46846;51.528;5.076;2023-03-21T08:06:04;100859.56;;;7.51;81.71
60974;BME280;46846;51.528;5.076;2023-03-21T08:08:29;100852.44;;;7.53;81.68
60974;BME280;46846;51.528;5.076;2023-03-21T08:10:55;100858.56;;;7.56;81.86
60974;BME280;46846;51.528;5.076;2023-03-21T08:13:20;100851.59;;;7.51;81.43
60974;BME280;46846;51.528;5.076;2023-03-21T08:15:45;100851.59;;;7.53;81.83
60974;BME280;46846;51.528;5.076;2023-03-21T08:18:11;100849.81;;;7.52;81.81
60974;BME280;46846;51.528;5.076;2023-03-21T08:20:36;100841.97;;;7.47;81.90
60974;BME280;46846;51.528;5.076;2023-03-21T08:23:02;100841.16;;;7.45;81.67
60974;BME280;46846;51.528;5.076;2023-03-21T08:25:27;100836.63;;;7.50;81.93
60974;BME280;46846;51.528;5.076;2023-03-21T08:27:52;100836.66;;;7.49;81.41
60974;BME280;46846;51.528;5.076;2023-03-21T08:30:20;100834.94;;;7.46;81.87
60974;BME280;46846;51.528;5.076;2023-03-21T08:32:46;100826.03;;;7.50;81.93
60974;BME280;46846;51.528;5.076;2023-03-21T08:35:14;100825.13;;;7.51;81.67
60974;BME280;46846;51.528;5.076;2023-03-21T08:37:41;100819.84;;;7.50;81.51
60974;BME280;46846;51.528;5.076;2023-03-21T08:40:12;100809.25;;;7.50;82.04
60974;BME280;46846;51.528;5.076;2023-03-21T08:42:41;100819.03;;;7.48;81.46
60974;BME280;46846;51.528;5.076;2023-03-21T08:45:08;100813.66;;;7.51;82.09
60974;BME280;46846;51.528;5.076;2023-03-21T08:47:34;100814.59;;;7.48;81.78
60974;BME280;46846;51.528;5.076;2023-03-21T08:49:59;100809.28;;;7.48;81.97
60974;BME280;46846;51.528;5.076;2023-03-21T08:52:25;100812.13;;;7.41;81.88
60974;BME280;46846;51.528;5.076;2023-03-21T08:54:51;100814.66;;;7.45;82.16
60974;BME280;46846;51.528;5.076;2023-03-21T08:57:17;100810.38;;;7.39;81.88
60974;BME280;46846;51.528;5.076;2023-03-21T08:59:42;100804.06;;;7.45;82.03
60974;BME280;46846;51.528;5.076;2023-03-21T09:02:10;100808.41;;;7.49;81.54
60974;BME280;46846;51.528;5.076;2023-03-21T09:04:37;100814.59;;;7.48;82.11
60974;BME280;46846;51.528;5.076;2023-03-21T09:07:03;100814.59;;;7.48;82.04
60974;BME280;46846;51.528;5.076;2023-03-21T09:09:30;100813.63;;;7.52;82.09
60974;BME280;46846;51.528;5.076;2023-03-21T09:11:58;100812.00;;;7.47;81.92
60974;BME280;46846;51.528;5.076;2023-03-21T09:14:23;100803.94;;;7.51;82.31
60974;BME280;46846;51.528;5.076;2023-03-21T09:16:48;100800.38;;;7.52;82.18
60974;BME280;46846;51.528;5.076;2023-03-21T09:19:14;100795.97;;;7.53;81.87
60974;BME280;46846;51.528;5.076;2023-03-21T09:21:41;100799.38;;;7.58;82.08
60974;BME280;46846;51.528;5.076;2023-03-21T09:24:08;100793.25;;;7.56;81.76
60974;BME280;46846;51.528;5.076;2023-03-21T09:26:33;100790.59;;;7.56;81.86
60974;BME280;46846;51.528;5.076;2023-03-21T09:28:59;100792.38;;;7.56;81.97
60974;BME280;46846;51.528;5.076;2023-03-21T09:31:25;100780.91;;;7.57;81.71
60974;BME280;46846;51.528;5.076;2023-03-21T09:33:53;100789.72;;;7.56;81.73
60974;BME280;46846;51.528;5.076;2023-03-21T09:36:22;100785.31;;;7.56;81.58
60974;BME280;46846;51.528;5.076;2023-03-21T09:38:52;100789.66;;;7.59;82.03
60974;BME280;46846;51.528;5.076;2023-03-21T09:51:17;100785.09;;;7.65;82.18
60974;BME280;46846;51.528;5.076;2023-03-21T09:53:46;100777.19;;;7.64;82.14
60974;BME280;46846;51.528;5.076;2023-03-21T09:56:14;100776.19;;;7.70;82.21
60974;BME280;46846;51.528;5.076;2023-03-21T09:58:48;100771.94;;;7.61;82.00
60974;BME280;46846;51.528;5.076;2023-03-21T10:01:24;100771.81;;;7.67;82.23
60974;BME280;46846;51.528;5.076;2023-03-21T10:04:02;100776.31;;;7.63;82.28
60974;BME280;46846;51.528;5.076;2023-03-21T10:06:29;100768.94;;;7.76;83.05
60974;BME280;46846;51.528;5.076;2023-03-21T10:09:07;100773.28;;;7.80;82.65
60974;BME280;46846;51.528;5.076;2023-03-21T10:11:44;100767.91;;;7.82;82.71
60974;BME280;46846;51.528;5.076;2023-03-21T10:14:36;100767.91;;;7.82;82.33
60974;BME280;46846;51.528;5.076;2023-03-21T10:17:15;100762.63;;;7.82;82.83
60974;BME280;46846;51.528;5.076;2023-03-21T10:19:48;100758.28;;;7.79;82.72
60974;BME280;46846;51.528;5.076;2023-03-21T10:22:17;100751.25;;;7.78;82.19
60974;BME280;46846;51.528;5.076;2023-03-21T10:24:42;100760.09;;;7.77;82.75
60974;BME280;46846;51.528;5.076;2023-03-21T10:27:08;100758.47;;;7.72;82.79
60974;BME280;46846;51.528;5.076;2023-03-21T10:29:44;100761.25;;;7.65;82.97
60974;BME280;46846;51.528;5.076;2023-03-21T10:32:10;100750.78;;;7.61;83.35
60974;BME280;46846;51.528;5.076;2023-03-21T10:34:57;100752.44;;;7.65;83.12
60974;BME280;46846;51.528;5.076;2023-03-21T10:37:24;100754.03;;;7.72;82.90
60974;BME280;46846;51.528;5.076;2023-03-21T10:39:53;100758.47;;;7.72;82.98
60974;BME280;46846;51.528;5.076;2023-03-21T10:42:28;100762.97;;;7.68;83.22
60974;BME280;46846;51.528;5.076;2023-03-21T10:44:56;100764.78;;;7.66;83.36
60974;BME280;46846;51.528;5.076;2023-03-21T10:47:25;100764.63;;;7.72;83.62
60974;BME280;46846;51.528;5.076;2023-03-21T10:49:50;100756.69;;;7.72;83.55
60974;BME280;46846;51.528;5.076;2023-03-21T10:52:21;100752.94;;;7.81;83.66
60974;BME280;46846;51.528;5.076;2023-03-21T10:54:47;100744.16;;;7.79;83.27
60974;BME280;46846;51.528;5.076;2023-03-21T10:57:21;100747.59;;;7.84;83.43
60974;BME280;46846;51.528;5.076;2023-03-21T10:59:58;100743.06;;;7.88;83.28
60974;BME280;46846;51.528;5.076;2023-03-21T11:04:57;100745.06;;;7.78;83.52
60974;BME280;46846;51.528;5.076;2023-03-21T11:07:29;100755.75;;;7.75;83.88
60974;BME280;46846;51.528;5.076;2023-03-21T11:09:59;100754.66;;;7.82;83.81
60974;BME280;46846;51.528;5.076;2023-03-21T11:12:37;100753.78;;;7.83;83.56
60974;BME280;46846;51.528;5.076;2023-03-21T11:17:51;100734.06;;;7.95;83.94
60974;BME280;46846;51.528;5.076;2023-03-21T11:20:17;100747.34;;;7.93;83.92
60974;BME280;46846;51.528;5.076;2023-03-21T11:22:43;100742.03;;;7.93;83.50
60974;BME280;46846;51.528;5.076;2023-03-21T11:25:21;100750.81;;;7.96;83.95
60974;BME280;46846;51.528;5.076;2023-03-21T11:27:51;100740.94;;;8.02;83.88
60974;BME280;46846;51.528;5.076;2023-03-21T11:30:26;100749.88;;;7.98;83.67
60974;BME280;46846;51.528;5.076;2023-03-21T11:33:01;100743.66;;;7.99;84.05
60974;BME280;46846;51.528;5.076;2023-03-21T11:35:35;100741.88;;;8.01;84.04
60974;BME280;46846;51.528;5.076;2023-03-21T11:38:01;100746.09;;;8.09;83.96
60974;BME280;46846;51.528;5.076;2023-03-21T11:40:32;100738.19;;;8.07;83.65
60974;BME280;46846;51.528;5.076;2023-03-21T11:45:57;100734.63;;;8.08;83.93
60974;BME280;46846;51.528;5.076;2023-03-21T11:48:23;100737.22;;;8.10;84.00
60974;BME280;46846;51.528;5.076;2023-03-21T11:50:55;100737.16;;;8.13;83.87
60974;BME280;46846;51.528;5.076;2023-03-21T11:58:55;100723.59;;;8.24;83.54
60974;BME280;46846;51.528;5.076;2023-03-21T12:04:41;100713.91;;;8.24;83.61
60974;BME280;46846;51.528;5.076;2023-03-21T12:12:25;100710.88;;;8.37;83.35
60974;BME280;46846;51.528;5.076;2023-03-21T12:15:00;100711.00;;;8.32;83.57
60974;BME280;46846;51.528;5.076;2023-03-21T12:20:51;100708.03;;;8.44;82.83
60974;BME280;46846;51.528;5.076;2023-03-21T12:23:48;100704.50;;;8.44;82.81
60974;BME280;46846;51.528;5.076;2023-03-21T12:26:30;100698.22;;;8.48;82.61
60974;BME280;46846;51.528;5.076;2023-03-21T12:31:55;100706.13;;;8.50;82.69
60974;BME280;46846;51.528;5.076;2023-03-21T12:34:34;100699.91;;;8.51;82.68
60974;BME280;46846;51.528;5.076;2023-03-21T12:39:34;100690.19;;;8.51;82.65
60974;BME280;46846;51.528;5.076;2023-03-21T12:44:31;100688.19;;;8.59;82.34
60974;BME280;46846;51.528;5.076;2023-03-21T12:47:02;100696.13;;;8.61;82.21
60974;BME280;46846;51.528;5.076;2023-03-21T12:49:38;100686.31;;;8.63;82.15
60974;BME280;46846;51.528;5.076;2023-03-21T12:52:10;100685.41;;;8.64;82.19
60974;BME280;46846;51.528;5.076;2023-03-21T12:54:38;100680.00;;;8.69;82.11
60974;BME280;46846;51.528;5.076;2023-03-21T13:02:37;100674.53;;;8.73;81.86
60974;BME280;46846;51.528;5.076;2023-03-21T13:07:37;100667.41;;;8.75;81.84
60974;BME280;46846;51.528;5.076;2023-03-21T13:10:13;100673.59;;;8.76;81.89
60974;BME280;46846;51.528;5.076;2023-03-21T13:12:43;100664.44;;;8.86;81.67
60974;BME280;46846;51.528;5.076;2023-03-21T13:17:51;100659.78;;;8.93;81.84
60974;BME280;46846;51.528;5.076;2023-03-21T13:23:09;100651.50;;;9.04;81.60
60974;BME280;46846;51.528;5.076;2023-03-21T13:25:47;100647.03;;;9.06;81.57
60974;BME280;46846;51.528;5.076;2023-03-21T13:28:33;100645.22;;;9.07;81.47
60974;BME280;46846;51.528;5.076;2023-03-21T13:31:14;100648.81;;;9.06;81.90
60974;BME280;46846;51.528;5.076;2023-03-21T13:33:41;100641.44;;;9.15;80.09
60974;BME280;46846;51.528;5.076;2023-03-21T13:36:15;100641.47;;;9.14;81.16
60974;BME280;46846;51.528;5.076;2023-03-21T13:38:48;100640.63;;;9.13;81.36
60974;BME280;46846;51.528;5.076;2023-03-21T13:41:17;100632.50;;;9.18;81.56
60974;BME280;46846;51.528;5.076;2023-03-21T13:43:54;100624.63;;;9.15;81.60
60974;BME280;46846;51.528;5.076;2023-03-21T13:48:59;100631.28;;;9.28;80.04
60974;BME280;46846;51.528;5.076;2023-03-21T13:54:00;100632.03;;;9.32;81.26
60974;BME280;46846;51.528;5.076;2023-03-21T13:56:26;100620.66;;;9.28;81.55
60974;BME280;46846;51.528;5.076;2023-03-21T13:59:02;100625.78;;;9.35;81.64
60974;BME280;46846;51.528;5.076;2023-03-21T14:01:32;100622.22;;;9.34;81.52
60974;BME280;46846;51.528;5.076;2023-03-21T14:06:58;100624.69;;;9.40;81.77
60974;BME280;46846;51.528;5.076;2023-03-21T14:09:33;100614.13;;;9.39;81.48
60974;BME280;46846;51.528;5.076;2023-03-21T14:12:02;100616.56;;;9.45;81.62
60974;BME280;46846;51.528;5.076;2023-03-21T14:14:36;100612.09;;;9.47;81.27
60974;BME280;46846;51.528;5.076;2023-03-21T14:17:11;100611.88;;;9.53;81.41
60974;BME280;46846;51.528;5.076;2023-03-21T14:19:36;100607.59;;;9.49;81.31
60974;BME280;46846;51.528;5.076;2023-03-21T14:22:03;100608.25;;;9.56;81.29
60974;BME280;46846;51.528;5.076;2023-03-21T14:24:28;100598.75;;;9.49;81.27
60974;BME280;46846;51.528;5.076;2023-03-21T14:26:53;100597.91;;;9.48;81.27
60974;BME280;46846;51.528;5.076;2023-03-21T14:29:31;100599.41;;;9.55;81.43
60974;BME280;46846;51.528;5.076;2023-03-21T14:31:58;100597.56;;;9.57;81.22
60974;BME280;46846;51.528;5.076;2023-03-21T14:34:30;100596.69;;;9.57;81.17
60974;BME280;46846;51.528;5.076;2023-03-21T14:36:56;100597.53;;;9.59;81.62
60974;BME280;46846;51.528;5.076;2023-03-21T14:39:22;100605.44;;;9.61;81.06
60974;BME280;46846;51.528;5.076;2023-03-21T14:41:53;100604.47;;;9.63;81.42